Time;durP1;ratioP1;P1;durP2;ratioP2;P2;SDS_P1;SDS_P2;PMS_P1;PMS_P2;Temp;Humidity;BMP_temperature;BMP_pressure;BME280_temperature;BME280_humidity;BME280_pressure;Samples;Min_cycle;Max_cycle;Signal;HPM_P1;HPM_P2
2022/08/14 00:00:35;;;;;;;;;;;;;;;-142.75;100.00;75818.41;5053940;28;19913;-65
2022/08/14 00:03:00;;;;;;;;;;;;;;;-142.75;100.00;75814.47;5053689;28;19952;-66
2022/08/14 00:05:25;;;;;;;;;;;;;;;-142.75;100.00;75818.41;5051727;28;19986;-67
2022/08/14 00:07:50;;;;;;;;;;;;;;;-142.75;100.00;75806.59;5044124;28;20499;-67
2022/08/14 00:10:17;;;;;;;;;;;;;;;-142.75;100.00;75794.78;5053150;28;19955;-67
2022/08/14 00:12:44;;;;;;;;;;;;;;;-142.75;100.00;75790.84;5052927;28;20011;-67
2022/08/14 00:15:09;;;;;;;;;;;;;;;-142.75;100.00;75790.84;5052946;28;19963;-67
2022/08/14 00:17:34;;;;;;;;;;;;;;;-142.75;100.00;75790.84;5052614;28;20362;-67
2022/08/14 00:19:59;;;;;;;;;;;;;;;-142.75;100.00;75802.66;5052998;28;19913;-67
2022/08/14 00:22:25;;;;;;;;;;;;;;;-142.75;100.00;75802.66;5052364;28;19913;-67
2022/08/14 00:24:50;;;;;;;;;;;;;;;-142.75;100.00;75798.72;5052883;28;19935;-67
2022/08/14 00:27:15;;;;;;;;;;;;;;;-142.75;100.00;75790.84;5052455;28;19999;-67
2022/08/14 00:29:40;;;;;;;;;;;;;;;-142.75;100.00;75796.75;5052643;28;20379;-67
2022/08/14 00:32:06;;;;;;;;;;;;;;;-142.75;100.00;75800.69;5052655;28;19939;-67
2022/08/14 00:34:31;;;;;;;;;;;;;;;-142.75;100.00;75802.66;5052727;28;19920;-67
2022/08/14 00:36:56;;;;;;;;;;;;;;;-142.75;100.00;75806.59;5052332;28;20399;-67
2022/08/14 00:39:22;;;;;;;;;;;;;;;-142.75;100.00;75800.69;5052579;28;19923;-67
2022/08/14 00:41:48;;;;;;;;;;;;;;;-142.75;100.00;75798.72;5034911;28;19951;-67
2022/08/14 00:44:13;;;;;;;;;;;;;;;-142.75;100.00;75810.53;5052396;28;19948;-67
2022/08/14 00:46:39;;;;;;;;;;;;;;;-142.75;100.00;75800.69;5052386;28;19916;-67
2022/08/14 00:49:06;;;;;;;;;;;;;;;-142.75;100.00;75808.56;5052724;28;19920;-67
2022/08/14 00:51:32;;;;;;;;;;;;;;;-142.75;100.00;75810.53;5034798;28;19936;-67
2022/08/14 00:53:58;;;;;;;;;;;;;;;-142.75;100.00;75830.22;5052558;28;20378;-67
2022/08/14 00:56:23;;;;;;;;;;;;;;;-142.75;100.00;75818.41;5052574;28;19919;-67
2022/08/14 00:58:49;;;;;;;;;;;;;;;-142.75;100.00;75810.53;5052020;28;19932;-67
2022/08/14 01:01:17;;;;;;;;;;;;;;;-142.75;100.00;75812.50;5052421;28;20007;-67
2022/08/14 01:03:43;;;;;;;;;;;;;;;-142.75;100.00;75812.50;5034846;28;19913;-67
2022/08/14 01:06:09;;;;;;;;;;;;;;;-142.75;100.00;75826.28;5034754;28;19950;-67
2022/08/14 01:08:35;;;;;;;;;;;;;;;-142.75;100.00;75818.41;5052183;28;20383;-67
2022/08/14 01:11:01;;;;;;;;;;;;;;;-142.75;100.00;75818.41;5052490;28;19912;-67
2022/08/14 01:13:32;;;;;;;;;;;;;;;-142.75;100.00;75822.34;5052141;28;19917;-67
2022/08/14 01:15:59;;;;;;;;;;;;;;;-142.75;100.00;75824.31;5052522;28;20478;-67
2022/08/14 01:21:14;;;;;;;;;;;;;;;-142.75;100.00;75851.88;5052266;28;20408;-67
2022/08/14 01:23:44;;;;;;;;;;;;;;;-142.75;100.00;75869.56;5034505;28;20003;-67
2022/08/14 01:26:10;;;;;;;;;;;;;;;-142.75;100.00;75873.50;5034327;28;20333;-67
2022/08/14 01:28:37;;;;;;;;;;;;;;;-142.75;100.00;75877.44;5051832;28;19912;-67
2022/08/14 01:31:12;;;;;;;;;;;;;;;-142.75;100.00;75875.47;5052175;28;19936;-67
2022/08/14 01:33:40;;;;;;;;;;;;;;;-142.75;100.00;75879.41;5034189;28;20344;-67
2022/08/14 01:36:06;;;;;;;;;;;;;;;-142.75;100.00;75881.38;5055244;28;19983;-67
2022/08/14 01:38:35;;;;;;;;;;;;;;;-142.75;100.00;75885.31;5037686;28;19917;-67
2022/08/14 01:41:00;;;;;;;;;;;;;;;-142.75;100.00;75885.31;5056037;28;19920;-67
2022/08/14 01:43:29;;;;;;;;;;;;;;;-142.75;100.00;75875.47;5055853;28;19913;-67
2022/08/14 01:45:56;;;;;;;;;;;;;;;-142.75;100.00;75889.25;5055905;28;19973;-67
2022/08/14 01:48:22;;;;;;;;;;;;;;;-142.75;100.00;75889.25;5055553;28;19913;-67
2022/08/14 01:50:47;;;;;;;;;;;;;;;-142.75;100.00;75899.09;5055702;28;20425;-67
2022/08/14 01:53:12;;;;;;;;;;;;;;;-142.75;100.00;75889.25;5055543;28;20449;-67
2022/08/14 01:55:38;;;;;;;;;;;;;;;-142.75;100.00;75885.31;5037696;28;19931;-67
2022/08/14 01:58:03;;;;;;;;;;;;;;;-142.75;100.00;75887.28;5055151;28;19917;-67
2022/08/14 02:00:28;;;;;;;;;;;;;;;-142.75;100.00;75877.44;5055472;28;20011;-67
2022/08/14 02:02:54;;;;;;;;;;;;;;;-142.75;100.00;75889.25;5055381;28;19913;-67
2022/08/14 02:05:20;;;;;;;;;;;;;;;-142.75;100.00;75881.38;5055361;28;19916;-67
2022/08/14 02:07:45;;;;;;;;;;;;;;;-142.75;100.00;75887.28;5055107;28;19939;-67
2022/08/14 02:10:12;;;;;;;;;;;;;;;-142.75;100.00;75885.31;5055373;28;19913;-67
2022/08/14 02:12:37;;;;;;;;;;;;;;;-142.75;100.00;75899.09;5055067;28;19921;-67
2022/08/14 02:15:08;;;;;;;;;;;;;;;-142.75;100.00;75885.31;5055316;28;19973;-67
2022/08/14 02:17:33;;;;;;;;;;;;;;;-142.75;100.00;75908.94;5054796;28;20382;-67
2022/08/14 02:19:58;;;;;;;;;;;;;;;-142.75;100.00;75916.81;5055109;28;20007;-67
2022/08/14 02:22:25;;;;;;;;;;;;;;;-142.75;100.00;75918.78;5055145;28;19912;-67
2022/08/14 02:24:50;;;;;;;;;;;;;;;-142.75;100.00;75914.84;5037062;28;20481;-67
2022/08/14 02:27:17;;;;;;;;;;;;;;;-142.75;100.00;75920.75;5054725;28;19913;-67
2022/08/14 02:29:42;;;;;;;;;;;;;;;-142.75;100.00;75918.78;5055051;28;19920;-67
2022/08/14 02:32:09;;;;;;;;;;;;;;;-142.75;100.00;75922.72;5054849;28;20294;-67
2022/08/14 02:34:35;;;;;;;;;;;;;;;-142.75;100.00;75924.69;5054874;28;19916;-67
2022/08/14 02:37:10;;;;;;;;;;;;;;;-142.75;100.00;75932.56;5054610;28;19913;-67
2022/08/14 02:39:40;;;;;;;;;;;;;;;-142.75;100.00;75926.66;5054818;28;19952;-67
2022/08/14 02:42:11;;;;;;;;;;;;;;;-142.75;100.00;75938.47;5054584;28;19913;-67
2022/08/14 02:44:38;;;;;;;;;;;;;;;-142.75;100.00;75944.38;5054665;28;19913;-67
2022/08/14 02:47:03;;;;;;;;;;;;;;;-142.75;100.00;75944.38;5053829;28;20303;-67
2022/08/14 02:49:29;;;;;;;;;;;;;;;-142.75;100.00;75956.19;5054467;28;19924;-67
2022/08/14 02:51:55;;;;;;;;;;;;;;;-142.75;100.00;75964.03;5054527;28;19966;-67
2022/08/14 02:54:25;;;;;;;;;;;;;;;-142.75;100.00;75969.94;5054349;28;19982;-67
2022/08/14 02:56:50;;;;;;;;;;;;;;;-142.75;100.00;75964.03;5054039;28;20329;-67
2022/08/14 02:59:16;;;;;;;;;;;;;;;-142.75;100.00;75960.13;5054464;28;19916;-67
2022/08/14 03:01:41;;;;;;;;;;;;;;;-142.75;100.00;75956.19;5054453;28;19916;-67
2022/08/14 03:04:09;;;;;;;;;;;;;;;-142.75;100.00;75954.22;5054527;28;19970;-66
2022/08/14 03:06:35;;;;;;;;;;;;;;;-142.75;100.00;75971.91;5054692;28;19971;-66
2022/08/14 03:09:00;;;;;;;;;;;;;;;-142.75;100.00;75964.03;5054871;28;20282;-66
2022/08/14 03:11:25;;;;;;;;;;;;;;;-142.75;100.00;75969.94;5037174;28;19952;-66
2022/08/14 03:13:51;;;;;;;;;;;;;;;-142.75;100.00;75979.78;5054636;28;19959;-66
2022/08/14 03:16:17;;;;;;;;;;;;;;;-142.75;100.00;75985.69;5036898;28;19953;-66
2022/08/14 03:18:44;;;;;;;;;;;;;;;-142.75;100.00;75985.69;5036419;28;19923;-66
2022/08/14 03:21:12;;;;;;;;;;;;;;;-142.75;100.00;75987.66;5054215;28;20003;-66
2022/08/14 03:23:37;;;;;;;;;;;;;;;-142.75;100.00;75999.47;5053932;28;19920;-66
2022/08/14 03:26:05;;;;;;;;;;;;;;;-142.75;100.00;75999.47;5053911;28;19912;-66
2022/08/14 03:28:31;;;;;;;;;;;;;;;-142.75;100.00;76007.34;5053540;28;19913;-66
2022/08/14 03:30:57;;;;;;;;;;;;;;;-142.75;100.00;75999.47;5054127;28;19919;-66
2022/08/14 03:33:22;;;;;;;;;;;;;;;-142.75;100.00;76005.38;5036078;28;19977;-66
2022/08/14 03:35:48;;;;;;;;;;;;;;;-142.75;100.00;76001.44;5053769;28;19966;-66
2022/08/14 03:38:16;;;;;;;;;;;;;;;-142.75;100.00;75997.50;5053482;28;19920;-66
2022/08/14 03:40:41;;;;;;;;;;;;;;;-142.75;100.00;76005.38;5053631;28;20008;-66
2022/08/14 03:43:07;;;;;;;;;;;;;;;-142.75;100.00;76013.25;5053626;28;20378;-66
2022/08/14 03:45:34;;;;;;;;;;;;;;;-142.75;100.00;76005.38;5053522;28;19916;-66
2022/08/14 03:48:00;;;;;;;;;;;;;;;-142.75;100.00;76005.38;5053307;28;19957;-66
2022/08/14 03:50:26;;;;;;;;;;;;;;;-142.75;100.00;75995.53;5053427;28;20024;-66
2022/08/14 03:52:51;;;;;;;;;;;;;;;-142.75;100.00;75997.50;5053551;28;19963;-66
2022/08/14 03:55:16;;;;;;;;;;;;;;;-142.75;100.00;75987.66;5053621;28;19912;-66
2022/08/14 03:57:42;;;;;;;;;;;;;;;-142.75;100.00;75995.53;5052494;28;19940;-66
2022/08/14 04:00:10;;;;;;;;;;;;;;;-142.75;100.00;76019.16;5053706;28;19912;-65
2022/08/14 04:02:36;;;;;;;;;;;;;;;-142.75;100.00;76015.22;5058272;28;19913;-66
2022/08/14 04:05:01;;;;;;;;;;;;;;;-142.75;100.00;76003.41;5053160;28;19939;-66
2022/08/14 04:07:26;;;;;;;;;;;;;;;-142.75;100.00;76013.25;5052835;28;19917;-66
2022/08/14 04:09:52;;;;;;;;;;;;;;;-142.75;100.00;76001.44;5053103;28;19920;-66
2022/08/14 04:14:44;;;;;;;;;;;;;;;-142.75;100.00;75999.47;5052778;22;20343;-67
2022/08/14 04:17:10;;;;;;;;;;;;;;;-142.75;100.00;76007.34;5031006;28;20462;-67
2022/08/14 04:19:36;;;;;;;;;;;;;;;-142.75;100.00;76017.19;5032823;28;19918;-66
2022/08/14 04:22:02;;;;;;;;;;;;;;;-142.75;100.00;76025.06;5032845;28;20374;-66
2022/08/14 04:24:27;;;;;;;;;;;;;;;-142.75;100.00;76019.16;5032735;28;19928;-66
2022/08/14 04:26:53;;;;;;;;;;;;;;;-142.75;100.00;76025.06;5014773;28;19917;-67
2022/08/14 04:29:18;;;;;;;;;;;;;;;-142.75;100.00;76019.16;5032654;28;19913;-66
2022/08/14 04:31:43;;;;;;;;;;;;;;;-142.75;100.00;76015.22;5032716;28;20016;-66
2022/08/14 04:34:09;;;;;;;;;;;;;;;-142.75;100.00;76007.34;5032641;28;19913;-65
2022/08/14 04:43:34;;;;;;;;;;;;;;;-142.75;100.00;76003.41;5032345;28;20275;-65
2022/08/14 04:44:51;;;;;;;;;;;;;;;-142.75;100.00;76030.97;5012955;28;19983;-66
2022/08/14 04:50:02;;;;;;;;;;;;;;;-142.75;100.00;76032.94;5032723;28;19967;-66
2022/08/14 04:52:27;;;;;;;;;;;;;;;-142.75;100.00;76046.72;5032255;28;19920;-67
2022/08/14 04:54:53;;;;;;;;;;;;;;;-142.75;100.00;76038.84;5032414;28;19913;-67
2022/08/14 04:57:18;;;;;;;;;;;;;;;-142.75;100.00;76021.13;5031975;28;19968;-66
2022/08/14 04:59:43;;;;;;;;;;;;;;;-142.75;100.00;76027.03;5014634;28;19913;-67
2022/08/14 05:02:09;;;;;;;;;;;;;;;-142.75;100.00;76017.19;5032276;28;19920;-67
2022/08/14 05:04:34;;;;;;;;;;;;;;;-142.75;100.00;76007.34;5032147;28;19917;-66
2022/08/14 05:06:59;;;;;;;;;;;;;;;-142.75;100.00;76003.41;5031935;28;19923;-67
2022/08/14 05:09:25;;;;;;;;;;;;;;;-142.75;100.00;75995.53;5032086;28;19967;-67
2022/08/14 05:11:50;;;;;;;;;;;;;;;-142.75;100.00;75995.53;5032226;28;20371;-67
2022/08/14 05:14:17;;;;;;;;;;;;;;;-142.75;100.00;75983.72;5031937;28;19924;-66
2022/08/14 05:16:42;;;;;;;;;;;;;;;-142.75;100.00;75983.72;5023964;28;19968;-67
2022/08/14 05:19:12;;;;;;;;;;;;;;;-142.75;100.00;75971.91;5013652;28;19921;-66
2022/08/14 05:21:38;;;;;;;;;;;;;;;-142.75;100.00;75946.34;5029563;28;19917;-66
2022/08/14 05:24:03;;;;;;;;;;;;;;;-142.75;100.00;75964.03;5024047;28;20055;-67
2022/08/14 05:26:28;;;;;;;;;;;;;;;-142.75;100.00;75950.28;5030013;28;20294;-66
2022/08/14 05:28:53;;;;;;;;;;;;;;;-142.75;100.00;75928.63;5031086;28;19948;-67
2022/08/14 05:31:19;;;;;;;;;;;;;;;-142.75;100.00;75920.75;5031494;28;19913;-67
2022/08/14 05:33:45;;;;;;;;;;;;;;;-142.75;100.00;75897.13;5014173;28;19920;-67
2022/08/14 05:36:11;;;;;;;;;;;;;;;-142.75;100.00;75873.50;5031987;28;20281;-66
2022/08/14 05:38:38;;;;;;;;;;;;;;;-142.75;100.00;75838.09;5031666;28;19917;-66
2022/08/14 05:41:04;;;;;;;;;;;;;;;-142.75;100.00;75818.41;5031958;28;20333;-67
2022/08/14 05:43:30;;;;;;;;;;;;;;;-142.75;100.00;75800.69;5032172;28;19967;-66
2022/08/14 05:45:56;;;;;;;;;;;;;;;-142.75;100.00;75798.72;5031992;28;19920;-68
2022/08/14 05:48:23;;;;;;;;;;;;;;;-142.75;100.00;75777.06;5031500;28;19913;-67
2022/08/14 05:50:48;;;;;;;;;;;;;;;-142.75;100.00;75755.44;5031830;28;19940;-67
2022/08/14 05:53:13;;;;;;;;;;;;;;;-142.75;100.00;75729.84;5013997;28;19968;-67
2022/08/14 05:55:38;;;;;;;;;;;;;;;-142.75;100.00;75712.13;5031820;28;19917;-67
2022/08/14 05:58:05;;;;;;;;;;;;;;;-142.75;100.00;75688.50;5031337;28;19918;-66
2022/08/14 06:00:35;;;;;;;;;;;;;;;-142.75;100.00;75678.66;5031631;28;19913;-67
2022/08/14 06:03:01;;;;;;;;;;;;;;;-142.75;100.00;75662.94;5031628;28;20395;-67
2022/08/14 06:05:27;;;;;;;;;;;;;;;-142.75;100.00;75668.84;5031633;28;19914;-67
2022/08/14 06:07:53;;;;;;;;;;;;;;;-142.75;100.00;75649.16;5031306;28;19924;-67
2022/08/14 06:10:18;;;;;;;;;;;;;;;-142.75;100.00;75621.59;5031643;28;19913;-66
2022/08/14 06:12:44;;;;;;;;;;;;;;;-142.75;100.00;75607.81;5013658;28;19970;-67
2022/08/14 06:15:10;;;;;;;;;;;;;;;-142.75;100.00;75582.25;5031693;28;19939;-67
2022/08/14 06:17:42;;;;;;;;;;;;;;;-142.75;100.00;75562.56;5031149;28;19928;-67
2022/08/14 06:20:07;;;;;;;;;;;;;;;-142.75;100.00;75554.69;5031537;28;19920;-67
2022/08/14 06:22:32;;;;;;;;;;;;;;;-142.75;100.00;75548.78;5034895;28;20291;-67
2022/08/14 06:24:57;;;;;;;;;;;;;;;-142.75;100.00;75535.00;5035042;28;19913;-67
2022/08/14 06:27:23;;;;;;;;;;;;;;;-142.75;100.00;75523.19;5034755;28;19920;-67
2022/08/14 06:29:48;;;;;;;;;;;;;;;-142.75;100.00;75505.50;5034976;28;19913;-67
2022/08/14 06:32:14;;;;;;;;;;;;;;;-142.75;100.00;75495.66;5034886;28;20357;-67
2022/08/14 06:34:39;;;;;;;;;;;;;;;-142.75;100.00;75483.84;5034843;28;19913;-66
2022/08/14 06:37:04;;;;;;;;;;;;;;;-142.75;100.00;75495.66;5034581;28;19913;-67
2022/08/14 06:39:29;;;;;;;;;;;;;;;-142.75;100.00;75487.78;5034741;28;19972;-67
2022/08/14 06:41:55;;;;;;;;;;;;;;;-142.75;100.00;75474.00;5034749;28;20349;-67
2022/08/14 06:44:20;;;;;;;;;;;;;;;-142.75;100.00;75442.50;5034681;28;19913;-67
2022/08/14 06:46:45;;;;;;;;;;;;;;;-142.75;100.00;75424.81;5034254;28;19967;-67
2022/08/14 06:49:11;;;;;;;;;;;;;;;-142.75;100.00;75399.22;5034579;28;20003;-67
2022/08/14 06:51:36;;;;;;;;;;;;;;;-142.75;100.00;75381.50;5034552;28;19913;-67
2022/08/14 06:54:01;;;;;;;;;;;;;;;-142.75;100.00;75359.88;5034521;28;19956;-67
2022/08/14 06:56:27;;;;;;;;;;;;;;;-142.75;100.00;75342.16;5034422;28;19917;-67
2022/08/14 06:58:52;;;;;;;;;;;;;;;-142.75;100.00;75334.28;5034211;28;19928;-67
2022/08/14 07:07:04;;;;;;;;;;;;;;;-142.75;100.00;75279.19;4972902;28;19965;-68
2022/08/14 07:09:29;;;;;;;;;;;;;;;-142.75;100.00;75263.44;4973177;28;20449;-68
2022/08/14 07:11:55;;;;;;;;;;;;;;;-142.75;100.00;75267.38;4994515;28;20007;-67
2022/08/14 07:14:20;;;;;;;;;;;;;;;-142.75;100.00;75275.25;5034031;28;19942;-67
2022/08/14 07:16:45;;;;;;;;;;;;;;;-142.75;100.00;75275.25;5015851;28;20271;-67
2022/08/14 07:19:10;;;;;;;;;;;;;;;-142.75;100.00;75267.38;5033894;28;19921;-68
2022/08/14 07:21:36;;;;;;;;;;;;;;;-142.75;100.00;75239.81;5015396;28;19913;-67
2022/08/14 07:24:01;;;;;;;;;;;;;;;-142.75;100.00;75228.00;5033821;28;20000;-67
2022/08/14 07:26:26;;;;;;;;;;;;;;;-142.75;100.00;75224.09;5033787;28;19960;-67
2022/08/14 07:28:51;;;;;;;;;;;;;;;-142.75;100.00;75204.41;5033686;28;19924;-68
2022/08/14 07:31:16;;;;;;;;;;;;;;;-142.75;100.00;75188.66;5033701;28;19920;-67
2022/08/14 07:33:44;;;;;;;;;;;;;;;-142.75;100.00;75165.03;5032633;28;19987;-67
2022/08/14 07:36:10;;;;;;;;;;;;;;;-142.75;100.00;75141.44;5033686;28;19966;-68
2022/08/14 07:38:36;;;;;;;;;;;;;;;-142.75;100.00;75117.81;5038291;28;19921;-67
2022/08/14 07:41:01;;;;;;;;;;;;;;;-142.75;100.00;75082.41;5032793;28;20374;-66
2022/08/14 07:43:27;;;;;;;;;;;;;;;-142.75;100.00;75050.91;5033082;28;19975;-67
2022/08/14 07:45:52;;;;;;;;;;;;;;;-142.75;100.00;75027.31;5032591;28;19928;-67
2022/08/14 07:48:17;;;;;;;;;;;;;;;-142.75;100.00;75003.69;5032430;28;19917;-68
2022/08/14 07:50:44;;;;;;;;;;;;;;;-142.75;100.00;74995.81;5014717;28;19925;-67
2022/08/14 07:53:09;;;;;;;;;;;;;;;-142.75;100.00;74976.16;5035628;28;20306;-66
2022/08/14 07:55:35;;;;;;;;;;;;;;;-142.75;100.00;74940.72;5015359;28;19917;-68
2022/08/14 07:58:00;;;;;;;;;;;;;;;-142.75;100.00;74921.06;5015059;28;19954;-67
2022/08/14 08:00:27;;;;;;;;;;;;;;;-142.75;100.00;74917.13;5033329;28;19913;-68
2022/08/14 08:02:53;;;;;;;;;;;;;;;-142.75;100.00;74909.25;5015309;28;19917;-68
2022/08/14 08:05:20;;;;;;;;;;;;;;;-142.75;100.00;74871.84;5033087;28;20008;-68
2022/08/14 08:07:46;;;;;;;;;;;;;;;-142.75;100.00;74854.16;5032664;28;19960;-68
2022/08/14 08:10:30;;;;;;;;;;;;;;;-142.75;100.00;74832.50;5032740;28;20382;-69
2022/08/14 08:13:00;;;;;;;;;;;;;;;-142.75;98.69;74816.75;5015069;28;19932;-69
2022/08/14 08:15:27;;;;;;;;;;;;;;;-142.75;98.98;74801.03;5032969;28;20000;-68
2022/08/14 08:17:52;;;;;;;;;;;;;;;-142.75;96.09;74771.50;5032502;28;19925;-69
2022/08/14 08:20:19;;;;;;;;;;;;;;;-142.75;94.45;74779.38;5015192;28;19913;-68
2022/08/14 08:22:45;;;;;;;;;;;;;;;-142.75;96.59;74763.63;5032715;28;20371;-68
2022/08/14 08:25:11;;;;;;;;;;;;;;;-142.75;92.89;74738.06;5032728;28;19913;-68
2022/08/14 08:27:36;;;;;;;;;;;;;;;-142.75;92.96;74706.59;5014680;28;20362;-67
2022/08/14 08:30:08;;;;;;;;;;;;;;;-142.75;95.16;74673.13;5032726;28;19917;-68
2022/08/14 08:32:37;;;;;;;;;;;;;;;-142.75;90.06;74669.19;5032593;28;19913;-68
2022/08/14 08:35:03;;;;;;;;;;;;;;;-142.75;85.06;74631.81;5032503;28;19920;-67
2022/08/14 08:37:28;;;;;;;;;;;;;;;-142.75;85.47;74618.03;5032235;28;19913;-68
2022/08/14 08:39:53;;;;;;;;;;;;;;;-142.75;86.38;74602.31;5032639;28;20410;-69
2022/08/14 08:42:24;;;;;;;;;;;;;;;-142.75;88.44;74618.03;5040252;28;19917;-69
2022/08/14 08:44:53;;;;;;;;;;;;;;;-142.75;84.71;74576.72;5041004;28;19917;-68
2022/08/14 08:47:18;;;;;;;;;;;;;;;-142.75;87.37;74559.00;5018147;28;19963;-68
2022/08/14 08:49:44;;;;;;;;;;;;;;;-142.75;86.24;74531.47;5031845;28;19917;-70
2022/08/14 08:52:10;;;;;;;;;;;;;;;-142.75;80.23;74503.94;5031851;28;19955;-69
2022/08/14 08:54:36;;;;;;;;;;;;;;;-142.75;81.07;74474.41;5031876;28;19924;-69
2022/08/14 08:57:08;;;;;;;;;;;;;;;-142.75;82.25;74480.31;5034271;28;19917;-67
2022/08/14 08:59:34;;;;;;;;;;;;;;;-142.75;80.44;74435.06;5023961;28;20445;-69
2022/08/14 09:02:00;;;;;;;;;;;;;;;-142.75;77.65;74427.19;5028470;28;19917;-69
2022/08/14 09:04:26;;;;;;;;;;;;;;;-142.75;81.47;74417.34;5014123;28;19913;-69
2022/08/14 09:06:52;;;;;;;;;;;;;;;-142.75;77.19;74385.88;5016814;28;20323;-69
2022/08/14 09:09:25;;;;;;;;;;;;;;;-142.75;76.68;74442.94;4994965;28;19913;-69
2022/08/14 09:11:53;;;;;;;;;;;;;;;-142.75;79.38;74379.97;4994716;28;19997;-68
2022/08/14 09:14:20;;;;;;;;;;;;;;;-142.75;79.05;74397.69;5012491;28;19924;-68
2022/08/14 09:16:45;;;;;;;;;;;;;;;-142.75;75.59;74352.44;5012565;28;20342;-69
2022/08/14 09:19:11;;;;;;;;;;;;;;;-142.75;73.13;74346.53;5012547;28;19917;-68
2022/08/14 09:21:38;;;;;;;;;;;;;;;-142.75;72.39;74293.41;5011155;28;19913;-69
2022/08/14 09:24:04;;;;;;;;;;;;;;;-142.75;70.95;74322.94;5012860;28;19928;-68
2022/08/14 09:26:29;;;;;;;;;;;;;;;-142.75;71.41;74289.47;5025073;28;19982;-68
2022/08/14 09:28:54;;;;;;;;;;;;;;;-142.75;76.18;74303.25;5031643;28;20004;-68
2022/08/14 09:31:21;;;;;;;;;;;;;;;-142.75;74.99;74275.72;5031414;28;19913;-68
2022/08/14 09:33:52;;;;;;;;;;;;;;;-142.75;72.73;74240.28;5031282;28;20282;-69
2022/08/14 09:36:27;;;;;;;;;;;;;;;-142.75;70.14;74240.28;5031729;28;20404;-69
2022/08/14 09:39:08;;;;;;;;;;;;;;;-142.75;67.28;74204.88;5031340;28;20003;-69
2022/08/14 09:41:46;;;;;;;;;;;;;;;-142.75;69.03;74214.72;5014139;28;20390;-69
2022/08/14 09:44:17;;;;;;;;;;;;;;;-142.75;66.58;74200.94;5028788;28;19933;-68
2022/08/14 09:46:52;;;;;;;;;;;;;;;-142.75;68.61;74185.22;5031253;28;19996;-69
2022/08/14 09:49:28;;;;;;;;;;;;;;;-142.75;67.33;74179.31;5029631;28;19913;-70
2022/08/14 09:52:01;;;;;;;;;;;;;;;-142.75;67.80;74193.09;5029270;28;19925;-67
2022/08/14 09:54:34;;;;;;;;;;;;;;;-142.75;67.41;74153.72;5035092;28;19925;-68
2022/08/14 09:57:00;;;;;;;;;;;;;;;-142.75;64.60;74161.59;5034294;28;20497;-69
2022/08/14 09:59:26;;;;;;;;;;;;;;;-142.75;64.74;74145.88;5017681;28;20004;-69
2022/08/14 10:01:52;;;;;;;;;;;;;;;-142.75;66.57;74114.38;5035537;28;20298;-69
2022/08/14 10:04:22;;;;;;;;;;;;;;;-142.75;63.39;74102.59;5035399;28;19913;-69
2022/08/14 10:06:48;;;;;;;;;;;;;;;-142.75;63.29;74090.78;5035105;28;19936;-69
2022/08/14 10:09:13;;;;;;;;;;;;;;;-142.75;61.48;74100.63;5040566;28;20371;-69
2022/08/14 10:11:39;;;;;;;;;;;;;;;-142.75;59.97;74094.72;5037933;28;19956;-68
2022/08/14 10:14:14;;;;;;;;;;;;;;;-142.75;61.78;74051.44;5067349;22;19935;-68
2022/08/14 10:16:41;;;;;;;;;;;;;;;-142.75;59.22;74021.94;5070389;28;19917;-68
2022/08/14 10:19:08;;;;;;;;;;;;;;;-142.75;59.75;74023.91;5074291;28;19916;-68
2022/08/14 10:21:36;;;;;;;;;;;;;;;-142.75;60.49;74019.97;5076205;28;19913;-68
2022/08/14 10:24:01;;;;;;;;;;;;;;;-142.75;57.58;74008.16;5068670;28;19966;-67
2022/08/14 10:26:26;;;;;;;;;;;;;;;-142.75;59.63;74018.00;5055445;28;19920;-67
2022/08/14 10:28:52;;;;;;;;;;;;;;;-142.75;59.80;74014.06;5055157;28;19928;-67
2022/08/14 10:31:33;;;;;;;;;;;;;;;-142.75;60.91;74012.09;5055296;28;20386;-67
2022/08/14 10:34:08;;;;;;;;;;;;;;;-142.75;60.19;74000.28;5052870;28;20386;-67
2022/08/14 10:36:37;;;;;;;;;;;;;;;-142.75;59.97;74031.75;5054894;28;19916;-67
2022/08/14 10:39:04;;;;;;;;;;;;;;;-142.75;60.46;73994.38;5036430;28;19936;-68
2022/08/14 10:41:38;;;;;;;;;;;;;;;-142.75;59.40;74012.09;5054365;28;19913;-67
2022/08/14 10:44:08;;;;;;;;;;;;;;;-142.75;60.28;73970.78;5036227;28;19970;-68
2022/08/14 10:46:39;;;;;;;;;;;;;;;-142.75;57.66;73937.34;5053906;28;20401;-68
2022/08/14 10:49:08;;;;;;;;;;;;;;;-142.75;57.10;73905.88;5053996;28;19913;-68
2022/08/14 10:51:34;;;;;;;;;;;;;;;-142.75;56.64;73941.28;5054077;28;19956;-68
2022/08/14 10:54:04;;;;;;;;;;;;;;;-142.75;57.76;73964.88;5036663;28;19959;-68
2022/08/14 10:56:32;;;;;;;;;;;;;;;-142.75;57.88;73945.22;5054590;28;19966;-68
2022/08/14 10:59:02;;;;;;;;;;;;;;;-142.75;59.83;73925.53;5054226;28;20011;-68
2022/08/14 11:01:31;;;;;;;;;;;;;;;-142.75;59.79;73901.94;5054359;28;19913;-68
2022/08/14 11:03:56;;;;;;;;;;;;;;;-142.75;58.10;73890.13;5054060;28;19913;-69
2022/08/14 11:06:22;;;;;;;;;;;;;;;-142.75;57.36;73876.34;5053690;28;19974;-69
2022/08/14 11:08:50;;;;;;;;;;;;;;;-142.75;58.71;73913.72;5035535;28;21673;-68
2022/08/14 11:11:16;;;;;;;;;;;;;;;-142.75;57.53;73870.44;5053611;28;19916;-68
2022/08/14 11:13:42;;;;;;;;;;;;;;;-142.75;58.32;73884.22;5053468;28;19925;-69
2022/08/14 11:16:08;;;;;;;;;;;;;;;-142.75;53.66;73850.78;5049695;28;20325;-68
2022/08/14 11:18:35;;;;;;;;;;;;;;;-142.75;52.57;73870.44;5053179;28;19921;-69
2022/08/14 11:21:00;;;;;;;;;;;;;;;-142.75;48.57;73850.78;5053699;28;19958;-68
2022/08/14 11:23:28;;;;;;;;;;;;;;;-142.75;49.89;73846.84;5053928;28;20378;-69
2022/08/14 11:25:55;;;;;;;;;;;;;;;-142.75;47.19;73850.78;5053733;28;19920;-69
2022/08/14 11:28:24;;;;;;;;;;;;;;;-142.75;48.37;73811.44;5053436;28;19921;-69
2022/08/14 11:30:50;;;;;;;;;;;;;;;-142.75;47.42;73838.97;5054089;28;20385;-69
2022/08/14 11:33:20;;;;;;;;;;;;;;;-142.75;51.23;73817.34;5053749;28;19980;-69
2022/08/14 11:35:46;;;;;;;;;;;;;;;-142.75;48.40;73803.56;5053669;28;19913;-68
2022/08/14 11:38:11;;;;;;;;;;;;;;;-142.75;48.72;73779.97;5053158;28;19917;-68
2022/08/14 11:40:37;;;;;;;;;;;;;;;-142.75;46.34;73754.41;5035733;28;19921;-68
2022/08/14 11:43:04;;;;;;;;;;;;;;;-142.75;41.79;73787.84;5035527;28;19936;-68
2022/08/14 11:45:34;;;;;;;;;;;;;;;-142.75;45.28;73793.75;5053446;28;19962;-68
2022/08/14 11:48:19;;;;;;;;;;;;;;;-142.75;45.53;73819.31;5053118;28;19935;-68
2022/08/14 11:50:45;;;;;;;;;;;;;;;-142.75;41.17;73801.59;5053002;28;19913;-67
2022/08/14 11:53:20;;;;;;;;;;;;;;;-142.75;41.05;73768.16;5053190;28;19924;-70
2022/08/14 11:55:45;;;;;;;;;;;;;;;-142.75;38.09;73744.56;5053309;28;19912;-70
2022/08/14 11:58:11;;;;;;;;;;;;;;;-142.75;37.51;73764.22;5052877;28;19917;-70
2022/08/14 12:00:57;;;;;;;;;;;;;;;-142.75;36.34;73756.38;5053553;28;20003;-69
2022/08/14 12:03:22;;;;;;;;;;;;;;;-142.75;39.84;73748.50;5035197;28;20374;-69
2022/08/14 12:05:47;;;;;;;;;;;;;;;-142.75;39.14;73770.13;5053596;28;19920;-67
2022/08/14 12:08:12;;;;;;;;;;;;;;;-142.75;39.97;73726.84;5052892;28;19924;-67
2022/08/14 12:10:39;;;;;;;;;;;;;;;-142.75;36.29;73701.28;5053152;28;20448;-67
2022/08/14 12:13:15;;;;;;;;;;;;;;;-142.75;36.60;73699.31;5053284;28;19936;-67
2022/08/14 12:15:41;;;;;;;;;;;;;;;-142.75;42.32;73730.78;5053232;28;19924;-68
2022/08/14 12:18:06;;;;;;;;;;;;;;;-142.75;41.72;73748.50;5052175;28;19917;-68
2022/08/14 12:20:35;;;;;;;;;;;;;;;-142.75;40.90;73732.75;5052878;28;19923;-67
2022/08/14 12:23:01;;;;;;;;;;;;;;;-142.75;37.26;73728.81;5053220;28;20334;-67
2022/08/14 12:25:27;;;;;;;;;;;;;;;-142.75;36.60;73766.19;5053006;28;19913;-67
2022/08/14 12:27:54;;;;;;;;;;;;;;;-142.75;38.44;73744.56;5052896;28;19913;-67
2022/08/14 12:30:41;;;;;;;;;;;;;;;-142.75;38.34;73768.16;5052983;28;19913;-68
2022/08/14 12:33:28;;;;;;;;;;;;;;;-142.75;38.10;73756.38;5052824;28;20452;-68
2022/08/14 12:35:55;;;;;;;;;;;;;;;-142.75;36.96;73768.16;5052937;28;19912;-67
2022/08/14 12:38:30;;;;;;;;;;;;;;;-142.75;37.67;73744.56;5052434;28;20054;-68